sensor_id;sensor_type;location;lat;lon;timestamp;P1;durP1;ratioP1;P2;durP2;ratioP2
24617;SDS011;12762;51.730;5.356;2022-12-18T00:01:24;66.37;;;22.83;;
24617;SDS011;12762;51.730;5.356;2022-12-18T00:03:53;63.73;;;21.90;;
24617;SDS011;12762;51.730;5.356;2022-12-18T00:06:21;60.50;;;20.97;;
24617;SDS011;12762;51.730;5.356;2022-12-18T00:08:52;59.70;;;21.37;;
24617;SDS011;12762;51.730;5.356;2022-12-18T00:11:20;64.80;;;21.97;;
24617;SDS011;12762;51.730;5.356;2022-12-18T00:13:49;56.33;;;21.03;;
24617;SDS011;12762;51.730;5.356;2022-12-18T00:16:17;57.73;;;20.73;;
24617;SDS011;12762;51.730;5.356;2022-12-18T00:18:47;60.73;;;21.73;;
24617;SDS011;12762;51.730;5.356;2022-12-18T00:21:15;65.80;;;21.10;;
24617;SDS011;12762;51.730;5.356;2022-12-18T00:23:46;57.47;;;21.20;;
24617;SDS011;12762;51.730;5.356;2022-12-18T00:26:15;64.73;;;21.63;;
24617;SDS011;12762;51.730;5.356;2022-12-18T00:28:49;57.70;;;19.97;;
24617;SDS011;12762;51.730;5.356;2022-12-18T00:31:17;52.20;;;19.13;;
24617;SDS011;12762;51.730;5.356;2022-12-18T00:33:48;59.90;;;20.40;;
24617;SDS011;12762;51.730;5.356;2022-12-18T00:36:21;62.10;;;21.00;;
24617;SDS011;12762;51.730;5.356;2022-12-18T00:38:58;59.67;;;20.83;;
24617;SDS011;12762;51.730;5.356;2022-12-18T00:41:25;53.93;;;18.73;;
24617;SDS011;12762;51.730;5.356;2022-12-18T00:44:13;54.10;;;20.47;;
24617;SDS011;12762;51.730;5.356;2022-12-18T00:46:42;49.90;;;18.77;;
24617;SDS011;12762;51.730;5.356;2022-12-18T00:49:10;58.03;;;19.67;;
24617;SDS011;12762;51.730;5.356;2022-12-18T00:51:37;58.40;;;19.57;;
24617;SDS011;12762;51.730;5.356;2022-12-18T00:54:04;58.27;;;19.23;;
24617;SDS011;12762;51.730;5.356;2022-12-18T00:56:31;59.27;;;19.87;;
24617;SDS011;12762;51.730;5.356;2022-12-18T00:58:57;48.90;;;19.13;;
24617;SDS011;12762;51.730;5.356;2022-12-18T01:01:27;58.43;;;19.83;;
24617;SDS011;12762;51.730;5.356;2022-12-18T01:03:59;53.60;;;19.83;;
24617;SDS011;12762;51.730;5.356;2022-12-18T01:06:27;50.00;;;17.73;;
24617;SDS011;12762;51.730;5.356;2022-12-18T01:08:54;52.80;;;19.20;;
24617;SDS011;12762;51.730;5.356;2022-12-18T01:11:21;53.67;;;18.77;;
24617;SDS011;12762;51.730;5.356;2022-12-18T01:13:49;47.93;;;17.63;;
24617;SDS011;12762;51.730;5.356;2022-12-18T01:16:17;45.77;;;17.67;;
24617;SDS011;12762;51.730;5.356;2022-12-18T01:18:44;45.30;;;17.50;;
24617;SDS011;12762;51.730;5.356;2022-12-18T01:21:13;50.33;;;18.67;;
24617;SDS011;12762;51.730;5.356;2022-12-18T01:23:42;47.70;;;17.87;;
24617;SDS011;12762;51.730;5.356;2022-12-18T01:26:11;55.13;;;17.43;;
24617;SDS011;12762;51.730;5.356;2022-12-18T01:28:41;54.03;;;19.50;;
24617;SDS011;12762;51.730;5.356;2022-12-18T01:34:00;52.00;;;16.93;;
24617;SDS011;12762;51.730;5.356;2022-12-18T01:36:28;46.53;;;17.23;;
24617;SDS011;12762;51.730;5.356;2022-12-18T01:39:04;44.83;;;15.93;;
24617;SDS011;12762;51.730;5.356;2022-12-18T01:41:33;55.50;;;19.03;;
24617;SDS011;12762;51.730;5.356;2022-12-18T01:52:39;45.27;;;16.20;;
24617;SDS011;12762;51.730;5.356;2022-12-18T01:55:10;42.43;;;15.77;;
24617;SDS011;12762;51.730;5.356;2022-12-18T01:57:38;45.10;;;16.57;;
24617;SDS011;12762;51.730;5.356;2022-12-18T02:00:17;45.50;;;17.60;;
24617;SDS011;12762;51.730;5.356;2022-12-18T02:02:46;42.00;;;16.83;;
24617;SDS011;12762;51.730;5.356;2022-12-18T02:05:18;43.03;;;16.70;;
24617;SDS011;12762;51.730;5.356;2022-12-18T02:15:44;42.50;;;15.87;;
24617;SDS011;12762;51.730;5.356;2022-12-18T02:18:17;47.67;;;16.10;;
24617;SDS011;12762;51.730;5.356;2022-12-18T02:20:48;39.17;;;15.07;;
24617;SDS011;12762;51.730;5.356;2022-12-18T02:23:42;46.20;;;16.83;;
24617;SDS011;12762;51.730;5.356;2022-12-18T02:26:34;39.00;;;15.50;;
24617;SDS011;12762;51.730;5.356;2022-12-18T02:29:12;33.33;;;15.63;;
24617;SDS011;12762;51.730;5.356;2022-12-18T02:31:51;35.33;;;15.63;;
24617;SDS011;12762;51.730;5.356;2022-12-18T02:34:21;47.90;;;16.77;;
24617;SDS011;12762;51.730;5.356;2022-12-18T02:36:52;49.20;;;15.57;;
24617;SDS011;12762;51.730;5.356;2022-12-18T02:39:20;41.93;;;16.60;;
24617;SDS011;12762;51.730;5.356;2022-12-18T02:41:49;41.43;;;16.67;;
24617;SDS011;12762;51.730;5.356;2022-12-18T02:44:17;48.47;;;16.27;;
24617;SDS011;12762;51.730;5.356;2022-12-18T02:46:45;42.10;;;15.13;;
24617;SDS011;12762;51.730;5.356;2022-12-18T02:49:31;46.93;;;16.83;;
24617;SDS011;12762;51.730;5.356;2022-12-18T02:55:13;43.03;;;16.30;;
24617;SDS011;12762;51.730;5.356;2022-12-18T02:58:05;41.93;;;15.37;;
24617;SDS011;12762;51.730;5.356;2022-12-18T03:04:28;35.87;;;15.00;;
24617;SDS011;12762;51.730;5.356;2022-12-18T03:07:01;39.60;;;15.67;;
24617;SDS011;12762;51.730;5.356;2022-12-18T03:09:38;36.33;;;14.97;;
24617;SDS011;12762;51.730;5.356;2022-12-18T03:12:28;44.33;;;15.17;;
24617;SDS011;12762;51.730;5.356;2022-12-18T03:15:00;34.63;;;15.63;;
24617;SDS011;12762;51.730;5.356;2022-12-18T03:17:33;38.17;;;15.43;;
24617;SDS011;12762;51.730;5.356;2022-12-18T03:20:06;39.03;;;14.10;;
24617;SDS011;12762;51.730;5.356;2022-12-18T03:22:40;34.53;;;13.90;;
24617;SDS011;12762;51.730;5.356;2022-12-18T03:25:11;33.13;;;14.07;;
24617;SDS011;12762;51.730;5.356;2022-12-18T03:27:42;43.50;;;15.10;;
24617;SDS011;12762;51.730;5.356;2022-12-18T03:30:14;33.73;;;14.60;;
24617;SDS011;12762;51.730;5.356;2022-12-18T03:32:52;36.87;;;15.43;;
24617;SDS011;12762;51.730;5.356;2022-12-18T03:35:37;37.00;;;14.17;;
24617;SDS011;12762;51.730;5.356;2022-12-18T03:38:08;38.17;;;13.97;;
24617;SDS011;12762;51.730;5.356;2022-12-18T03:40:42;39.17;;;15.57;;
24617;SDS011;12762;51.730;5.356;2022-12-18T03:43:45;37.23;;;14.77;;
24617;SDS011;12762;51.730;5.356;2022-12-18T03:46:30;32.83;;;13.77;;
24617;SDS011;12762;51.730;5.356;2022-12-18T03:49:53;40.90;;;13.30;;
24617;SDS011;12762;51.730;5.356;2022-12-18T03:52:09;32.87;;;13.53;;
24617;SDS011;12762;51.730;5.356;2022-12-18T03:54:40;30.60;;;12.40;;
24617;SDS011;12762;51.730;5.356;2022-12-18T03:57:19;30.23;;;12.23;;
24617;SDS011;12762;51.730;5.356;2022-12-18T03:59:49;32.57;;;12.37;;
24617;SDS011;12762;51.730;5.356;2022-12-18T04:02:21;35.77;;;13.23;;
24617;SDS011;12762;51.730;5.356;2022-12-18T04:04:51;39.37;;;14.23;;
24617;SDS011;12762;51.730;5.356;2022-12-18T04:07:20;36.43;;;14.97;;
24617;SDS011;12762;51.730;5.356;2022-12-18T04:09:51;37.67;;;14.53;;
24617;SDS011;12762;51.730;5.356;2022-12-18T04:12:25;38.13;;;15.27;;
24617;SDS011;12762;51.730;5.356;2022-12-18T04:14:52;31.33;;;15.20;;
24617;SDS011;12762;51.730;5.356;2022-12-18T04:17:19;34.37;;;14.87;;
24617;SDS011;12762;51.730;5.356;2022-12-18T04:19:46;37.23;;;14.93;;
24617;SDS011;12762;51.730;5.356;2022-12-18T04:22:13;34.10;;;15.33;;
24617;SDS011;12762;51.730;5.356;2022-12-18T04:24:40;32.23;;;15.33;;
24617;SDS011;12762;51.730;5.356;2022-12-18T04:27:06;35.20;;;15.73;;
24617;SDS011;12762;51.730;5.356;2022-12-18T04:29:39;31.67;;;15.67;;
24617;SDS011;12762;51.730;5.356;2022-12-18T04:32:06;37.37;;;15.47;;
24617;SDS011;12762;51.730;5.356;2022-12-18T04:34:34;44.27;;;17.23;;
24617;SDS011;12762;51.730;5.356;2022-12-18T04:37:01;42.80;;;17.97;;
24617;SDS011;12762;51.730;5.356;2022-12-18T04:39:27;40.40;;;15.93;;
24617;SDS011;12762;51.730;5.356;2022-12-18T04:41:54;33.93;;;16.30;;
24617;SDS011;12762;51.730;5.356;2022-12-18T04:44:21;36.00;;;16.77;;
24617;SDS011;12762;51.730;5.356;2022-12-18T04:46:51;36.40;;;16.40;;
24617;SDS011;12762;51.730;5.356;2022-12-18T04:49:18;35.93;;;15.50;;
24617;SDS011;12762;51.730;5.356;2022-12-18T04:51:45;40.83;;;17.07;;
24617;SDS011;12762;51.730;5.356;2022-12-18T04:54:12;41.03;;;16.37;;
24617;SDS011;12762;51.730;5.356;2022-12-18T04:56:38;36.43;;;15.70;;
24617;SDS011;12762;51.730;5.356;2022-12-18T04:59:05;37.33;;;17.40;;
24617;SDS011;12762;51.730;5.356;2022-12-18T05:01:32;31.53;;;15.37;;
24617;SDS011;12762;51.730;5.356;2022-12-18T05:04:01;39.57;;;16.17;;
24617;SDS011;12762;51.730;5.356;2022-12-18T05:06:28;33.87;;;15.47;;
24617;SDS011;12762;51.730;5.356;2022-12-18T05:08:57;35.17;;;15.40;;
24617;SDS011;12762;51.730;5.356;2022-12-18T05:11:24;33.87;;;16.43;;
24617;SDS011;12762;51.730;5.356;2022-12-18T05:13:51;35.33;;;16.23;;
24617;SDS011;12762;51.730;5.356;2022-12-18T05:16:18;40.10;;;15.43;;
24617;SDS011;12762;51.730;5.356;2022-12-18T05:18:46;37.30;;;16.00;;
24617;SDS011;12762;51.730;5.356;2022-12-18T05:21:13;36.30;;;16.13;;
24617;SDS011;12762;51.730;5.356;2022-12-18T05:23:40;33.90;;;14.13;;
24617;SDS011;12762;51.730;5.356;2022-12-18T05:26:08;31.03;;;14.13;;
24617;SDS011;12762;51.730;5.356;2022-12-18T05:28:36;37.47;;;16.40;;
24617;SDS011;12762;51.730;5.356;2022-12-18T05:31:03;36.73;;;14.33;;
24617;SDS011;12762;51.730;5.356;2022-12-18T05:33:32;28.03;;;13.37;;
24617;SDS011;12762;51.730;5.356;2022-12-18T05:36:00;31.10;;;14.37;;
24617;SDS011;12762;51.730;5.356;2022-12-18T05:38:29;34.40;;;13.30;;
24617;SDS011;12762;51.730;5.356;2022-12-18T05:40:57;33.30;;;13.20;;
24617;SDS011;12762;51.730;5.356;2022-12-18T05:43:24;25.43;;;12.53;;
24617;SDS011;12762;51.730;5.356;2022-12-18T05:45:52;26.13;;;12.10;;
24617;SDS011;12762;51.730;5.356;2022-12-18T05:48:22;31.73;;;13.23;;
24617;SDS011;12762;51.730;5.356;2022-12-18T05:50:50;29.83;;;12.60;;
24617;SDS011;12762;51.730;5.356;2022-12-18T05:53:18;31.23;;;13.53;;
24617;SDS011;12762;51.730;5.356;2022-12-18T05:55:46;25.13;;;11.57;;
24617;SDS011;12762;51.730;5.356;2022-12-18T05:58:13;30.90;;;12.43;;
24617;SDS011;12762;51.730;5.356;2022-12-18T06:00:43;22.50;;;11.67;;
24617;SDS011;12762;51.730;5.356;2022-12-18T06:03:12;27.83;;;12.37;;
24617;SDS011;12762;51.730;5.356;2022-12-18T06:05:42;26.53;;;11.77;;
24617;SDS011;12762;51.730;5.356;2022-12-18T06:08:11;28.80;;;12.80;;
24617;SDS011;12762;51.730;5.356;2022-12-18T06:10:39;25.33;;;12.33;;
24617;SDS011;12762;51.730;5.356;2022-12-18T06:13:07;29.17;;;12.40;;
24617;SDS011;12762;51.730;5.356;2022-12-18T06:15:36;25.07;;;11.13;;
24617;SDS011;12762;51.730;5.356;2022-12-18T06:18:03;31.73;;;14.13;;
24617;SDS011;12762;51.730;5.356;2022-12-18T06:20:30;30.20;;;13.87;;
24617;SDS011;12762;51.730;5.356;2022-12-18T06:22:59;33.03;;;13.90;;
24617;SDS011;12762;51.730;5.356;2022-12-18T06:25:26;29.60;;;14.37;;
24617;SDS011;12762;51.730;5.356;2022-12-18T06:27:53;34.40;;;13.87;;
24617;SDS011;12762;51.730;5.356;2022-12-18T06:30:20;34.10;;;13.83;;
24617;SDS011;12762;51.730;5.356;2022-12-18T06:32:50;31.67;;;14.27;;
24617;SDS011;12762;51.730;5.356;2022-12-18T06:35:22;33.07;;;13.97;;
24617;SDS011;12762;51.730;5.356;2022-12-18T06:37:49;29.93;;;14.40;;
24617;SDS011;12762;51.730;5.356;2022-12-18T06:40:16;31.57;;;15.27;;
24617;SDS011;12762;51.730;5.356;2022-12-18T06:42:43;29.77;;;14.63;;
24617;SDS011;12762;51.730;5.356;2022-12-18T06:45:13;38.43;;;17.13;;
24617;SDS011;12762;51.730;5.356;2022-12-18T06:47:40;38.77;;;15.97;;
24617;SDS011;12762;51.730;5.356;2022-12-18T06:50:07;39.33;;;18.13;;
24617;SDS011;12762;51.730;5.356;2022-12-18T06:52:33;40.57;;;18.47;;
24617;SDS011;12762;51.730;5.356;2022-12-18T06:55:00;38.17;;;18.67;;
24617;SDS011;12762;51.730;5.356;2022-12-18T06:57:30;44.00;;;18.50;;
24617;SDS011;12762;51.730;5.356;2022-12-18T06:59:57;40.60;;;17.23;;
24617;SDS011;12762;51.730;5.356;2022-12-18T07:02:23;39.90;;;18.80;;
24617;SDS011;12762;51.730;5.356;2022-12-18T07:04:51;38.90;;;18.03;;
24617;SDS011;12762;51.730;5.356;2022-12-18T07:07:17;43.23;;;19.70;;
24617;SDS011;12762;51.730;5.356;2022-12-18T07:09:44;35.50;;;17.63;;
24617;SDS011;12762;51.730;5.356;2022-12-18T07:12:11;40.53;;;16.97;;
24617;SDS011;12762;51.730;5.356;2022-12-18T07:14:39;39.33;;;17.77;;
24617;SDS011;12762;51.730;5.356;2022-12-18T07:17:06;35.37;;;16.73;;
24617;SDS011;12762;51.730;5.356;2022-12-18T07:19:33;35.00;;;15.07;;
24617;SDS011;12762;51.730;5.356;2022-12-18T07:22:00;34.57;;;16.33;;
24617;SDS011;12762;51.730;5.356;2022-12-18T07:24:28;34.43;;;14.63;;
24617;SDS011;12762;51.730;5.356;2022-12-18T07:26:54;35.87;;;16.97;;
24617;SDS011;12762;51.730;5.356;2022-12-18T07:29:21;35.73;;;15.90;;
24617;SDS011;12762;51.730;5.356;2022-12-18T07:31:48;34.00;;;15.20;;
24617;SDS011;12762;51.730;5.356;2022-12-18T07:34:21;32.40;;;14.63;;
24617;SDS011;12762;51.730;5.356;2022-12-18T07:36:48;29.17;;;14.70;;
24617;SDS011;12762;51.730;5.356;2022-12-18T07:39:15;31.77;;;14.60;;
24617;SDS011;12762;51.730;5.356;2022-12-18T07:41:41;29.13;;;14.30;;
24617;SDS011;12762;51.730;5.356;2022-12-18T07:44:12;32.03;;;13.63;;
24617;SDS011;12762;51.730;5.356;2022-12-18T07:46:39;31.10;;;13.53;;
24617;SDS011;12762;51.730;5.356;2022-12-18T07:49:06;27.37;;;11.80;;
24617;SDS011;12762;51.730;5.356;2022-12-18T07:51:33;28.87;;;12.80;;
24617;SDS011;12762;51.730;5.356;2022-12-18T07:54:00;31.50;;;13.07;;
24617;SDS011;12762;51.730;5.356;2022-12-18T07:56:29;29.97;;;13.63;;
24617;SDS011;12762;51.730;5.356;2022-12-18T07:58:57;27.37;;;12.10;;
24617;SDS011;12762;51.730;5.356;2022-12-18T08:01:25;31.93;;;12.07;;
24617;SDS011;12762;51.730;5.356;2022-12-18T08:03:52;27.60;;;12.97;;
24617;SDS011;12762;51.730;5.356;2022-12-18T08:06:18;28.80;;;13.60;;
24617;SDS011;12762;51.730;5.356;2022-12-18T08:08:50;30.40;;;11.80;;
24617;SDS011;12762;51.730;5.356;2022-12-18T08:11:20;27.10;;;11.23;;
24617;SDS011;12762;51.730;5.356;2022-12-18T08:13:50;29.63;;;12.93;;
24617;SDS011;12762;51.730;5.356;2022-12-18T08:16:17;23.10;;;11.53;;
24617;SDS011;12762;51.730;5.356;2022-12-18T08:18:45;27.53;;;12.63;;
24617;SDS011;12762;51.730;5.356;2022-12-18T08:21:17;26.27;;;11.67;;
24617;SDS011;12762;51.730;5.356;2022-12-18T08:23:48;28.17;;;12.40;;
24617;SDS011;12762;51.730;5.356;2022-12-18T08:26:17;23.57;;;11.27;;
24617;SDS011;12762;51.730;5.356;2022-12-18T08:28:44;29.53;;;13.20;;
24617;SDS011;12762;51.730;5.356;2022-12-18T08:31:11;30.93;;;12.83;;
24617;SDS011;12762;51.730;5.356;2022-12-18T08:33:38;22.83;;;11.13;;
24617;SDS011;12762;51.730;5.356;2022-12-18T08:36:08;28.83;;;12.97;;
24617;SDS011;12762;51.730;5.356;2022-12-18T08:38:37;24.97;;;12.73;;
24617;SDS011;12762;51.730;5.356;2022-12-18T08:41:05;28.17;;;11.80;;
24617;SDS011;12762;51.730;5.356;2022-12-18T08:43:34;21.83;;;10.93;;
24617;SDS011;12762;51.730;5.356;2022-12-18T08:46:23;30.53;;;13.03;;
24617;SDS011;12762;51.730;5.356;2022-12-18T08:48:53;32.00;;;13.17;;
24617;SDS011;12762;51.730;5.356;2022-12-18T08:51:22;27.73;;;12.40;;
24617;SDS011;12762;51.730;5.356;2022-12-18T08:53:50;32.07;;;13.37;;
24617;SDS011;12762;51.730;5.356;2022-12-18T08:56:23;28.83;;;14.20;;
24617;SDS011;12762;51.730;5.356;2022-12-18T08:58:51;26.27;;;13.03;;
24617;SDS011;12762;51.730;5.356;2022-12-18T09:01:19;29.80;;;13.97;;
24617;SDS011;12762;51.730;5.356;2022-12-18T09:03:47;26.93;;;12.87;;
24617;SDS011;12762;51.730;5.356;2022-12-18T09:06:17;30.23;;;14.50;;
24617;SDS011;12762;51.730;5.356;2022-12-18T09:08:48;30.67;;;14.00;;
24617;SDS011;12762;51.730;5.356;2022-12-18T09:11:18;32.47;;;13.57;;
24617;SDS011;12762;51.730;5.356;2022-12-18T09:13:47;33.17;;;14.40;;
24617;SDS011;12762;51.730;5.356;2022-12-18T09:16:15;32.43;;;14.23;;
24617;SDS011;12762;51.730;5.356;2022-12-18T09:18:49;29.00;;;15.03;;
24617;SDS011;12762;51.730;5.356;2022-12-18T09:21:17;25.43;;;12.10;;
24617;SDS011;12762;51.730;5.356;2022-12-18T09:23:52;34.43;;;14.53;;
24617;SDS011;12762;51.730;5.356;2022-12-18T09:26:20;30.97;;;13.13;;
24617;SDS011;12762;51.730;5.356;2022-12-18T09:28:48;29.97;;;12.70;;
24617;SDS011;12762;51.730;5.356;2022-12-18T09:31:15;31.63;;;13.40;;
24617;SDS011;12762;51.730;5.356;2022-12-18T09:33:44;25.50;;;11.90;;
24617;SDS011;12762;51.730;5.356;2022-12-18T09:36:13;28.60;;;13.33;;
24617;SDS011;12762;51.730;5.356;2022-12-18T09:38:41;29.97;;;13.10;;
24617;SDS011;12762;51.730;5.356;2022-12-18T09:44:05;24.83;;;11.20;;
24617;SDS011;12762;51.730;5.356;2022-12-18T09:47:17;24.10;;;11.00;;
24617;SDS011;12762;51.730;5.356;2022-12-18T09:49:56;26.63;;;12.50;;
24617;SDS011;12762;51.730;5.356;2022-12-18T09:52:37;22.63;;;11.30;;
24617;SDS011;12762;51.730;5.356;2022-12-18T09:55:21;24.90;;;12.00;;
24617;SDS011;12762;51.730;5.356;2022-12-18T09:58:04;24.60;;;11.17;;
24617;SDS011;12762;51.730;5.356;2022-12-18T10:00:38;28.27;;;11.70;;
24617;SDS011;12762;51.730;5.356;2022-12-18T10:03:11;23.60;;;11.03;;
24617;SDS011;12762;51.730;5.356;2022-12-18T10:08:32;23.57;;;10.90;;
24617;SDS011;12762;51.730;5.356;2022-12-18T10:11:25;25.23;;;12.87;;
24617;SDS011;12762;51.730;5.356;2022-12-18T10:17:12;23.80;;;11.47;;
24617;SDS011;12762;51.730;5.356;2022-12-18T10:20:10;26.03;;;11.00;;
24617;SDS011;12762;51.730;5.356;2022-12-18T10:22:50;28.27;;;12.63;;
24617;SDS011;12762;51.730;5.356;2022-12-18T10:28:13;24.57;;;12.20;;
24617;SDS011;12762;51.730;5.356;2022-12-18T10:30:42;25.07;;;11.47;;
24617;SDS011;12762;51.730;5.356;2022-12-18T10:33:11;25.10;;;12.07;;
24617;SDS011;12762;51.730;5.356;2022-12-18T10:35:51;26.37;;;12.37;;
24617;SDS011;12762;51.730;5.356;2022-12-18T10:40:52;27.80;;;13.70;;
24617;SDS011;12762;51.730;5.356;2022-12-18T10:43:23;23.30;;;11.90;;
24617;SDS011;12762;51.730;5.356;2022-12-18T10:51:06;26.80;;;12.50;;
24617;SDS011;12762;51.730;5.356;2022-12-18T10:53:38;28.73;;;13.27;;
24617;SDS011;12762;51.730;5.356;2022-12-18T10:56:07;28.13;;;13.20;;
24617;SDS011;12762;51.730;5.356;2022-12-18T10:58:35;29.03;;;13.50;;
24617;SDS011;12762;51.730;5.356;2022-12-18T11:01:11;27.47;;;13.00;;
24617;SDS011;12762;51.730;5.356;2022-12-18T11:06:21;27.77;;;13.43;;
24617;SDS011;12762;51.730;5.356;2022-12-18T11:08:58;27.80;;;12.70;;
24617;SDS011;12762;51.730;5.356;2022-12-18T11:11:38;24.20;;;12.53;;
24617;SDS011;12762;51.730;5.356;2022-12-18T11:14:18;31.47;;;13.23;;
24617;SDS011;12762;51.730;5.356;2022-12-18T11:16:53;27.30;;;13.70;;
24617;SDS011;12762;51.730;5.356;2022-12-18T11:19:41;29.93;;;13.90;;
24617;SDS011;12762;51.730;5.356;2022-12-18T11:22:19;27.33;;;12.87;;
24617;SDS011;12762;51.730;5.356;2022-12-18T11:25:01;26.70;;;12.63;;
24617;SDS011;12762;51.730;5.356;2022-12-18T11:27:53;27.53;;;13.53;;
24617;SDS011;12762;51.730;5.356;2022-12-18T11:30:24;27.53;;;12.67;;
24617;SDS011;12762;51.730;5.356;2022-12-18T11:32:53;30.23;;;13.87;;
24617;SDS011;12762;51.730;5.356;2022-12-18T11:35:23;26.97;;;13.07;;
24617;SDS011;12762;51.730;5.356;2022-12-18T11:38:02;27.37;;;13.17;;
24617;SDS011;12762;51.730;5.356;2022-12-18T11:40:51;25.63;;;12.97;;
24617;SDS011;12762;51.730;5.356;2022-12-18T11:43:37;27.93;;;13.00;;
24617;SDS011;12762;51.730;5.356;2022-12-18T11:46:37;23.87;;;12.03;;
24617;SDS011;12762;51.730;5.356;2022-12-18T11:49:28;26.67;;;13.40;;
24617;SDS011;12762;51.730;5.356;2022-12-18T11:54:53;26.70;;;12.93;;
24617;SDS011;12762;51.730;5.356;2022-12-18T12:00:15;24.60;;;12.17;;
24617;SDS011;12762;51.730;5.356;2022-12-18T12:11:34;26.90;;;13.03;;
24617;SDS011;12762;51.730;5.356;2022-12-18T12:19:57;24.30;;;11.73;;
24617;SDS011;12762;51.730;5.356;2022-12-18T12:36:49;24.90;;;13.00;;
24617;SDS011;12762;51.730;5.356;2022-12-18T12:39:27;26.70;;;12.63;;
24617;SDS011;12762;51.730;5.356;2022-12-18T12:42:05;24.30;;;12.37;;
24617;SDS011;12762;51.730;5.356;2022-12-18T12:45:05;23.43;;;11.33;;
24617;SDS011;12762;51.730;5.356;2022-12-18T12:47:35;23.37;;;12.67;;
24617;SDS011;12762;51.730;5.356;2022-12-18T12:50:12;27.43;;;12.93;;
24617;SDS011;12762;51.730;5.356;2022-12-18T12:52:44;26.80;;;12.63;;
24617;SDS011;12762;51.730;5.356;2022-12-18T12:55:21;24.87;;;12.00;;
24617;SDS011;12762;51.730;5.356;2022-12-18T13:01:04;27.90;;;12.63;;
24617;SDS011;12762;51.730;5.356;2022-12-18T13:03:54;26.63;;;12.70;;
24617;SDS011;12762;51.730;5.356;2022-12-18T13:09:13;22.20;;;12.23;;
24617;SDS011;12762;51.730;5.356;2022-12-18T13:11:44;23.10;;;12.53;;
24617;SDS011;12762;51.730;5.356;2022-12-18T13:19:49;26.60;;;12.67;;
24617;SDS011;12762;51.730;5.356;2022-12-18T13:22:23;23.47;;;11.80;;
24617;SDS011;12762;51.730;5.356;2022-12-18T13:24:51;24.13;;;12.30;;
24617;SDS011;12762;51.730;5.356;2022-12-18T13:33:43;25.10;;;11.67;;
24617;SDS011;12762;51.730;5.356;2022-12-18T13:43:45;24.07;;;11.90;;
24617;SDS011;12762;51.730;5.356;2022-12-18T13:49:00;23.70;;;12.57;;
24617;SDS011;12762;51.730;5.356;2022-12-18T13:51:50;26.77;;;14.10;;
24617;SDS011;12762;51.730;5.356;2022-12-18T13:54:28;30.07;;;13.47;;
24617;SDS011;12762;51.730;5.356;2022-12-18T13:56:59;31.17;;;13.33;;
24617;SDS011;12762;51.730;5.356;2022-12-18T13:59:33;29.47;;;14.27;;
24617;SDS011;12762;51.730;5.356;2022-12-18T14:02:44;25.90;;;13.13;;
24617;SDS011;12762;51.730;5.356;2022-12-18T14:04:53;24.37;;;11.93;;
24617;SDS011;12762;51.730;5.356;2022-12-18T14:07:22;25.87;;;12.50;;
24617;SDS011;12762;51.730;5.356;2022-12-18T14:12:49;23.97;;;12.73;;
24617;SDS011;12762;51.730;5.356;2022-12-18T14:15:35;26.93;;;12.43;;
24617;SDS011;12762;51.730;5.356;2022-12-18T14:20:34;25.57;;;13.03;;
24617;SDS011;12762;51.730;5.356;2022-12-18T14:23:03;23.93;;;12.80;;
24617;SDS011;12762;51.730;5.356;2022-12-18T14:25:50;28.63;;;13.37;;
24617;SDS011;12762;51.730;5.356;2022-12-18T14:28:17;27.63;;;13.17;;
24617;SDS011;12762;51.730;5.356;2022-12-18T14:30:54;32.33;;;13.63;;
24617;SDS011;12762;51.730;5.356;2022-12-18T14:33:24;27.30;;;13.37;;
24617;SDS011;12762;51.730;5.356;2022-12-18T14:36:03;27.63;;;14.23;;
24617;SDS011;12762;51.730;5.356;2022-12-18T14:38:38;29.93;;;13.80;;
24617;SDS011;12762;51.730;5.356;2022-12-18T14:41:12;26.37;;;13.33;;
24617;SDS011;12762;51.730;5.356;2022-12-18T14:43:41;27.67;;;13.37;;
24617;SDS011;12762;51.730;5.356;2022-12-18T14:49:15;25.93;;;12.27;;
24617;SDS011;12762;51.730;5.356;2022-12-18T14:52:02;24.63;;;12.00;;
24617;SDS011;12762;51.730;5.356;2022-12-18T14:54:34;27.90;;;13.27;;
24617;SDS011;12762;51.730;5.356;2022-12-18T14:57:16;26.63;;;13.70;;
24617;SDS011;12762;51.730;5.356;2022-12-18T14:59:48;30.23;;;13.70;;
24617;SDS011;12762;51.730;5.356;2022-12-18T15:04:59;29.97;;;13.57;;
24617;SDS011;12762;51.730;5.356;2022-12-18T15:07:50;27.50;;;13.43;;
24617;SDS011;12762;51.730;5.356;2022-12-18T15:10:25;28.13;;;12.53;;
24617;SDS011;12762;51.730;5.356;2022-12-18T15:20:44;31.40;;;14.43;;
24617;SDS011;12762;51.730;5.356;2022-12-18T15:23:26;29.03;;;14.43;;
24617;SDS011;12762;51.730;5.356;2022-12-18T15:26:16;29.20;;;14.43;;
24617;SDS011;12762;51.730;5.356;2022-12-18T15:36:19;28.47;;;14.07;;
24617;SDS011;12762;51.730;5.356;2022-12-18T15:38:53;28.10;;;13.30;;
24617;SDS011;12762;51.730;5.356;2022-12-18T15:41:33;27.33;;;13.00;;
24617;SDS011;12762;51.730;5.356;2022-12-18T15:44:02;25.50;;;12.97;;
24617;SDS011;12762;51.730;5.356;2022-12-18T15:46:29;26.03;;;13.60;;
24617;SDS011;12762;51.730;5.356;2022-12-18T15:49:00;28.20;;;13.57;;
24617;SDS011;12762;51.730;5.356;2022-12-18T15:53:58;30.27;;;14.47;;
24617;SDS011;12762;51.730;5.356;2022-12-18T15:56:27;27.60;;;13.73;;
24617;SDS011;12762;51.730;5.356;2022-12-18T15:59:17;31.03;;;13.80;;
24617;SDS011;12762;51.730;5.356;2022-12-18T16:01:46;25.07;;;13.13;;
24617;SDS011;12762;51.730;5.356;2022-12-18T16:04:15;29.97;;;13.83;;
24617;SDS011;12762;51.730;5.356;2022-12-18T16:06:47;29.90;;;13.43;;
24617;SDS011;12762;51.730;5.356;2022-12-18T16:09:34;27.10;;;13.70;;
24617;SDS011;12762;51.730;5.356;2022-12-18T16:12:02;26.80;;;12.87;;
24617;SDS011;12762;51.730;5.356;2022-12-18T16:14:30;26.47;;;12.60;;
24617;SDS011;12762;51.730;5.356;2022-12-18T16:17:02;25.83;;;12.40;;
24617;SDS011;12762;51.730;5.356;2022-12-18T16:19:31;27.40;;;13.17;;
24617;SDS011;12762;51.730;5.356;2022-12-18T16:22:04;28.10;;;13.27;;
24617;SDS011;12762;51.730;5.356;2022-12-18T16:24:47;26.47;;;12.70;;
24617;SDS011;12762;51.730;5.356;2022-12-18T16:27:15;30.00;;;13.53;;
24617;SDS011;12762;51.730;5.356;2022-12-18T16:29:42;32.00;;;13.80;;
24617;SDS011;12762;51.730;5.356;2022-12-18T16:32:11;32.50;;;14.90;;
24617;SDS011;12762;51.730;5.356;2022-12-18T16:34:40;29.47;;;13.77;;
24617;SDS011;12762;51.730;5.356;2022-12-18T16:37:08;27.13;;;13.07;;
24617;SDS011;12762;51.730;5.356;2022-12-18T16:39:37;33.43;;;13.97;;
24617;SDS011;12762;51.730;5.356;2022-12-18T16:42:16;29.07;;;13.80;;
24617;SDS011;12762;51.730;5.356;2022-12-18T16:44:46;25.47;;;12.67;;
24617;SDS011;12762;51.730;5.356;2022-12-18T16:47:15;28.23;;;13.57;;
24617;SDS011;12762;51.730;5.356;2022-12-18T16:49:45;26.23;;;13.60;;
24617;SDS011;12762;51.730;5.356;2022-12-18T16:52:15;29.63;;;14.33;;
24617;SDS011;12762;51.730;5.356;2022-12-18T16:54:43;28.80;;;13.17;;
24617;SDS011;12762;51.730;5.356;2022-12-18T16:57:14;24.73;;;12.23;;
24617;SDS011;12762;51.730;5.356;2022-12-18T16:59:43;28.40;;;14.07;;
24617;SDS011;12762;51.730;5.356;2022-12-18T17:02:15;28.20;;;12.63;;
24617;SDS011;12762;51.730;5.356;2022-12-18T17:04:51;25.10;;;12.57;;
24617;SDS011;12762;51.730;5.356;2022-12-18T17:07:20;26.03;;;12.93;;
24617;SDS011;12762;51.730;5.356;2022-12-18T17:09:46;27.00;;;13.17;;